Time;durP1;ratioP1;P1;durP2;ratioP2;P2;SDS_P1;SDS_P2;PMS_P1;PMS_P2;Temp;Humidity;BMP_temperature;BMP_pressure;BME280_temperature;BME280_humidity;BME280_pressure;Samples;Min_cycle;Max_cycle;Signal;HPM_P1;HPM_P2
2024/01/24 00:02:02;;;;;;;0.73;0.68;;;17.60;66.80;;;;;;4882753;29;20225;-83
2024/01/24 00:04:28;;;;;;;1.55;0.65;;;17.70;66.80;;;;;;4866424;29;20546;-82
2024/01/24 00:09:31;;;;;;;2.05;0.77;;;17.70;67.00;;;;;;5016244;23;20240;-83
2024/01/24 00:11:58;;;;;;;0.70;0.57;;;17.70;66.90;;;;;;4926566;29;20564;-83
2024/01/24 00:14:24;;;;;;;1.55;0.70;;;17.70;67.10;;;;;;4919121;29;20267;-83
2024/01/24 00:16:49;;;;;;;1.48;0.50;;;17.70;67.00;;;;;;4951002;23;20233;-82
2024/01/24 00:19:16;;;;;;;1.55;0.63;;;17.70;66.90;;;;;;4888313;29;20721;-83
2024/01/24 00:21:42;;;;;;;1.17;0.65;;;17.70;66.80;;;;;;4905540;29;20170;-83
2024/01/24 00:24:08;;;;;;;1.23;0.70;;;17.70;66.20;;;;;;4919890;29;20166;-83
2024/01/24 00:26:36;;;;;;;3.38;0.70;;;17.70;66.20;;;;;;4893972;29;20190;-83
2024/01/24 00:29:02;;;;;;;0.43;0.40;;;17.70;66.60;;;;;;4907305;29;20171;-82
2024/01/24 00:34:04;;;;;;;0.95;0.70;;;17.70;66.60;;;;;;4941745;23;20241;-84
2024/01/24 00:36:30;;;;;;;0.77;0.60;;;17.70;66.60;;;;;;4902647;29;20658;-83
2024/01/24 00:38:56;;;;;;;0.90;0.60;;;17.70;66.10;;;;;;4920366;29;20190;-84
2024/01/24 00:41:22;;;;;;;0.93;0.57;;;17.70;66.50;;;;;;4924369;29;20570;-83
2024/01/24 00:43:48;;;;;;;3.83;0.88;;;17.60;66.20;;;;;;4913264;29;20588;-83
2024/01/24 00:46:14;;;;;;;0.75;0.60;;;17.70;66.10;;;;;;4903930;29;20245;-83
2024/01/24 00:48:39;;;;;;;1.55;0.70;;;17.70;66.30;;;;;;4904959;29;20230;-82
2024/01/24 00:51:06;;;;;;;1.98;0.70;;;17.70;66.30;;;;;;4921333;29;20177;-83
2024/01/24 00:53:35;;;;;;;0.85;0.60;;;17.70;66.50;;;;;;4924161;29;20163;-82
2024/01/24 00:56:03;;;;;;;1.25;0.50;;;17.70;66.20;;;;;;4906769;29;20182;-83
2024/01/24 00:58:29;;;;;;;1.90;0.77;;;17.60;66.30;;;;;;4923276;29;20539;-83
2024/01/24 01:00:55;;;;;;;0.70;0.50;;;17.60;66.10;;;;;;4940486;29;20150;-83
2024/01/24 01:03:21;;;;;;;1.38;0.63;;;17.70;66.30;;;;;;4906685;29;20169;-84
2024/01/24 01:05:47;;;;;;;1.30;0.57;;;17.60;66.50;;;;;;4874302;29;20190;-82
2024/01/24 01:08:13;;;;;;;2.45;0.60;;;17.60;66.30;;;;;;4921002;29;20163;-82
2024/01/24 01:59:11;;;;;;;1.05;0.60;;;17.60;66.30;;;;;;4979182;23;20257;-82
2024/01/24 02:01:37;;;;;;;1.63;0.60;;;17.60;66.10;;;;;;4922851;29;20585;-83
2024/01/24 02:04:03;;;;;;;0.70;0.60;;;17.60;66.30;;;;;;4907044;29;20202;-83
2024/01/24 02:06:28;;;;;;;1.98;0.88;;;17.60;66.30;;;;;;4907316;29;20565;-83
2024/01/24 02:08:54;;;;;;;1.77;0.63;;;17.50;66.10;;;;;;4906424;29;20575;-82
2024/01/24 02:11:21;;;;;;;1.38;0.60;;;17.50;66.30;;;;;;4916197;29;20214;-82
2024/01/24 02:13:46;;;;;;;1.13;0.52;;;17.50;66.10;;;;;;4921783;29;20165;-83
2024/01/24 02:16:13;;;;;;;1.23;0.60;;;17.50;65.70;;;;;;4890112;29;20170;-82
2024/01/24 02:18:42;;;;;;;1.00;0.50;;;17.60;66.10;;;;;;4934641;29;20194;-83
2024/01/24 02:21:08;;;;;;;1.08;0.50;;;17.50;66.10;;;;;;4902383;29;20178;-83
2024/01/24 02:23:33;;;;;;;1.60;0.65;;;17.60;65.90;;;;;;4902453;29;20159;-83
2024/01/24 02:25:59;;;;;;;0.90;0.70;;;17.50;66.10;;;;;;4894146;29;20182;-83
2024/01/24 02:28:26;;;;;;;1.52;0.52;;;17.50;65.80;;;;;;4905625;29;20510;-83
2024/01/24 02:30:52;;;;;;;1.33;0.68;;;17.50;66.10;;;;;;4905957;29;20158;-82
2024/01/24 02:33:20;;;;;;;1.85;0.70;;;17.50;66.00;;;;;;4905788;29;20178;-82
2024/01/24 05:54:57;;;;;;;1.65;0.57;;;17.40;65.00;;;;;;5881683;23;20287;-83
2024/01/24 05:57:23;;;;;;;1.67;0.60;;;17.40;65.20;;;;;;4910300;29;20719;-82
2024/01/24 05:59:49;;;;;;;2.05;0.68;;;17.30;65.30;;;;;;4874152;29;20572;-82
2024/01/24 06:02:15;;;;;;;1.73;0.73;;;17.30;65.10;;;;;;4906406;29;20167;-82
2024/01/24 06:04:40;;;;;;;1.50;0.40;;;17.40;65.20;;;;;;4904594;29;20553;-82
2024/01/24 06:07:06;;;;;;;0.60;0.50;;;17.30;65.10;;;;;;4909497;29;20534;-82
2024/01/24 06:09:32;;;;;;;1.75;0.70;;;17.30;65.00;;;;;;4901910;29;20708;-83
2024/01/24 06:11:59;;;;;;;1.48;0.77;;;17.30;64.70;;;;;;4885389;29;20265;-82
2024/01/24 06:16:50;;;;;;;2.28;0.50;;;17.40;65.00;;;;;;4915166;23;20609;-82
2024/01/24 06:21:53;;;;;;;1.13;0.60;;;17.30;64.90;;;;;;5177819;23;20627;-83
2024/01/24 06:24:19;;;;;;;0.68;0.50;;;17.40;64.90;;;;;;4886617;29;20172;-83
2024/01/24 06:26:45;;;;;;;1.20;0.50;;;17.30;65.20;;;;;;4903904;29;20181;-83
2024/01/24 06:29:11;;;;;;;1.45;0.80;;;17.30;64.90;;;;;;4871939;29;20623;-83
2024/01/24 06:31:37;;;;;;;0.63;0.50;;;17.30;64.90;;;;;;4871132;29;20186;-83
2024/01/24 06:34:07;;;;;;;0.57;0.43;;;17.30;65.00;;;;;;4871126;29;20164;-82
2024/01/24 06:36:33;;;;;;;0.95;0.40;;;17.30;64.90;;;;;;4834920;29;20188;-83
2024/01/24 06:38:59;;;;;;;1.48;0.70;;;17.30;64.90;;;;;;4858529;29;20603;-84
2024/01/24 06:41:24;;;;;;;1.05;0.63;;;17.30;64.50;;;;;;4883928;29;20160;-83
2024/01/24 06:43:50;;;;;;;0.73;0.40;;;17.40;64.60;;;;;;4852666;29;20192;-83
2024/01/24 06:46:17;;;;;;;0.60;0.43;;;17.30;64.90;;;;;;4867772;29;20168;-84
2024/01/24 06:48:43;;;;;;;1.52;0.55;;;17.30;64.90;;;;;;4849072;29;20197;-83
2024/01/24 06:51:12;;;;;;;0.98;0.43;;;17.30;64.60;;;;;;4852264;29;20271;-83
2024/01/24 06:53:38;;;;;;;1.35;0.60;;;17.40;64.70;;;;;;4883637;29;20183;-84
2024/01/24 06:56:04;;;;;;;1.05;0.47;;;17.30;64.60;;;;;;4852841;29;20160;-84
2024/01/24 06:58:30;;;;;;;0.82;0.45;;;17.30;64.60;;;;;;4848982;29;20219;-84
2024/01/24 07:00:56;;;;;;;1.38;0.50;;;17.30;64.30;;;;;;4882167;29;20286;-83
2024/01/24 07:03:24;;;;;;;2.08;0.50;;;17.40;64.10;;;;;;4852219;29;20164;-84
2024/01/24 07:05:51;;;;;;;0.98;0.70;;;17.40;64.20;;;;;;4870965;29;20163;-87
2024/01/24 07:08:17;;;;;;;1.63;0.60;;;17.40;64.10;;;;;;4876131;29;20251;-84
2024/01/24 07:10:42;;;;;;;2.28;0.50;;;17.40;64.70;;;;;;5012668;23;20158;-84
2024/01/24 07:13:12;;;;;;;0.70;0.60;;;17.40;63.80;;;;;;4914771;29;20201;-84
2024/01/24 07:15:38;;;;;;;1.33;0.43;;;17.40;64.10;;;;;;4894764;29;20178;-83
2024/01/24 07:18:04;;;;;;;0.98;0.57;;;17.40;63.70;;;;;;4903968;29;20198;-84
2024/01/24 07:20:31;;;;;;;0.50;0.40;;;17.50;63.50;;;;;;4896268;29;20178;-83
2024/01/24 07:23:07;;;;;;;0.80;0.60;;;17.50;63.40;;;;;;4907588;29;20174;-84
2024/01/24 07:25:33;;;;;;;1.10;0.50;;;17.60;63.50;;;;;;4894621;29;20176;-86
2024/01/24 07:38:11;;;;;;;0.95;0.50;;;17.50;63.10;;;;;;4870556;29;20642;-86
2024/01/24 07:40:39;;;;;;;0.90;0.52;;;17.50;63.20;;;;;;4885458;29;20164;-87
2024/01/24 07:43:08;;;;;;;0.88;0.50;;;17.50;63.20;;;;;;4873509;29;20262;-84
2024/01/24 07:46:20;;;;;;;3.13;0.50;;;17.50;63.20;;;;;;4840161;29;20278;-85
2024/01/24 07:48:30;;;;;;;0.65;0.50;;;17.50;63.80;;;;;;4806700;29;20655;-85
2024/01/24 07:50:56;;;;;;;0.90;0.50;;;17.50;63.20;;;;;;4801143;29;20224;-83
2024/01/24 08:00:55;;;;;;;;;;;;;;;;;;;;;
2024/01/24 08:07:28;;;;;;;1.33;0.32;;;17.60;62.90;;;;;;4741785;30;20277;-84
2024/01/24 08:10:10;;;;;;;3.03;0.63;;;17.60;62.60;;;;;;4745935;30;20193;-80
2024/01/24 08:12:38;;;;;;;1.30;0.68;;;17.60;63.10;;;;;;4743701;30;20244;-80
2024/01/24 08:15:05;;;;;;;0.88;0.40;;;17.60;63.40;;;;;;4745391;30;20275;-83
2024/01/24 08:18:04;;;;;;;0.60;0.60;;;17.60;63.50;;;;;;4746727;30;20256;-82
2024/01/24 08:20:30;;;;;;;1.05;0.50;;;17.70;63.60;;;;;;4731882;30;20240;-83
2024/01/24 08:23:00;;;;;;;1.30;0.60;;;17.60;63.50;;;;;;4743124;30;20205;-83
2024/01/24 08:25:31;;;;;;;2.92;0.85;;;17.60;63.70;;;;;;4745702;30;20644;-83
2024/01/24 08:27:57;;;;;;;1.42;0.47;;;17.60;63.90;;;;;;4745995;30;20201;-83
2024/01/24 08:30:25;;;;;;;1.63;0.45;;;17.60;63.10;;;;;;4743614;30;20664;-85
2024/01/24 08:32:51;;;;;;;2.40;0.52;;;17.60;63.00;;;;;;4741863;30;20193;-83
2024/01/24 08:35:20;;;;;;;3.47;0.60;;;17.60;63.40;;;;;;4735834;30;20321;-80
2024/01/24 08:37:46;;;;;;;0.52;0.43;;;17.60;64.70;;;;;;4781786;30;20197;-81
2024/01/24 08:40:14;;;;;;;0.47;0.40;;;17.60;63.60;;;;;;4807005;29;20243;-85
2024/01/24 08:43:02;;;;;;;0.68;0.40;;;17.60;62.60;;;;;;4829079;29;20189;-84
2024/01/24 08:45:29;;;;;;;1.05;0.50;;;17.70;62.60;;;;;;4849831;29;20300;-85
2024/01/24 08:47:55;;;;;;;1.95;0.60;;;17.70;62.90;;;;;;4852716;29;20295;-82
2024/01/24 08:50:22;;;;;;;1.17;0.52;;;17.70;62.20;;;;;;4853580;29;20660;-84
2024/01/24 08:52:50;;;;;;;1.98;0.60;;;17.70;62.70;;;;;;4869457;29;20207;-83
2024/01/24 08:55:43;;;;;;;3.05;0.70;;;17.70;62.60;;;;;;4855911;29;20203;-82
2024/01/24 08:58:13;;;;;;;4.18;0.80;;;17.70;62.80;;;;;;4867985;29;20203;-83
2024/01/24 09:00:38;;;;;;;5.80;0.80;;;17.70;62.40;;;;;;4885297;29;20156;-84
2024/01/24 09:03:04;;;;;;;3.10;0.50;;;17.70;62.30;;;;;;4880995;29;20199;-83
2024/01/24 09:05:39;;;;;;;3.03;0.60;;;17.80;62.60;;;;;;4876675;29;20299;-85
2024/01/24 09:08:06;;;;;;;2.85;0.73;;;17.80;61.90;;;;;;4864550;29;20307;-82
2024/01/24 09:10:35;;;;;;;4.93;0.65;;;17.90;61.80;;;;;;4861469;29;20208;-82
2024/01/24 09:13:01;;;;;;;5.18;0.82;;;17.90;61.90;;;;;;4857583;29;20231;-84
2024/01/24 09:15:32;;;;;;;4.70;0.80;;;17.90;62.30;;;;;;4857321;29;20175;-84
2024/01/24 09:18:02;;;;;;;3.15;0.50;;;17.90;62.30;;;;;;4874005;29;20215;-82
2024/01/24 09:20:29;;;;;;;2.90;0.70;;;17.90;63.10;;;;;;4843274;29;20188;-82
2024/01/24 09:22:55;;;;;;;2.38;0.68;;;17.90;63.90;;;;;;4861776;29;20218;-83
2024/01/24 09:25:22;;;;;;;1.95;0.80;;;17.90;63.30;;;;;;4873336;29;20172;-86
2024/01/24 09:27:48;;;;;;;5.78;0.70;;;17.90;63.40;;;;;;4880900;29;20183;-84
2024/01/24 09:30:14;;;;;;;1.95;0.75;;;17.80;63.60;;;;;;4888223;29;20231;-86
2024/01/24 09:32:45;;;;;;;7.53;1.05;;;17.90;63.40;;;;;;4872438;29;20230;-81
2024/01/24 09:35:16;;;;;;;5.88;0.70;;;17.90;63.40;;;;;;4855292;29;20189;-86
2024/01/24 09:37:43;;;;;;;2.92;0.50;;;17.90;63.60;;;;;;4887813;29;20237;-82
2024/01/24 09:40:22;;;;;;;2.83;0.70;;;17.90;63.80;;;;;;4872560;29;20639;-82
2024/01/24 09:42:50;;;;;;;1.08;0.60;;;17.90;63.10;;;;;;4871977;29;20175;-87
2024/01/24 09:48:34;;;;;;;3.72;0.55;;;18.00;62.50;;;;;;4807173;29;20190;-84
2024/01/24 09:51:11;;;;;;;;;;;;;;;;;;;;;
2024/01/24 09:53:39;;;;;;;4.70;0.77;;;18.00;62.90;;;;;;4778227;30;20285;-85
2024/01/24 09:56:18;;;;;;;1.15;0.57;;;17.80;63.20;;;;;;4776668;29;20186;-83
2024/01/24 09:59:01;;;;;;;3.25;0.60;;;17.90;63.20;;;;;;4769403;29;20286;-82
2024/01/24 10:01:40;;;;;;;2.30;0.47;;;18.00;62.40;;;;;;4774080;29;20197;-83
2024/01/24 10:04:16;;;;;;;1.58;0.60;;;18.00;63.20;;;;;;4733367;30;20737;-82
2024/01/24 10:06:43;;;;;;;2.42;0.80;;;18.00;63.50;;;;;;4748509;30;20209;-85
2024/01/24 10:09:40;;;;;;;1.50;0.47;;;17.90;63.20;;;;;;4744774;30;20200;-82
2024/01/24 10:12:06;;;;;;;1.55;0.52;;;17.90;63.50;;;;;;4695086;30;20385;-83
2024/01/24 10:14:58;;;;;;;3.30;1.05;;;17.90;63.00;;;;;;4697782;30;20205;-85
2024/01/24 10:17:31;;;;;;;4.18;0.60;;;17.90;62.70;;;;;;4711222;30;20321;-83
2024/01/24 10:20:21;;;;;;;1.15;0.60;;;18.00;62.90;;;;;;4702943;30;20218;-84
2024/01/24 10:22:53;;;;;;;2.42;0.70;;;17.90;63.00;;;;;;4690196;30;20219;-84
2024/01/24 10:25:21;;;;;;;1.65;0.50;;;18.00;63.40;;;;;;4688715;30;20194;-81
2024/01/24 10:27:51;;;;;;;2.72;0.50;;;18.00;63.20;;;;;;4739046;30;20188;-82
2024/01/24 10:30:17;;;;;;;2.53;0.55;;;18.00;62.90;;;;;;4778269;30;20198;-83
2024/01/24 10:32:48;;;;;;;0.88;0.43;;;17.90;62.80;;;;;;4792685;30;20184;-85
2024/01/24 10:35:14;;;;;;;3.00;0.93;;;18.00;63.00;;;;;;4777847;30;20191;-84
2024/01/24 10:37:47;;;;;;;1.00;0.45;;;17.90;62.80;;;;;;4778123;30;20276;-82
2024/01/24 10:40:15;;;;;;;0.73;0.40;;;18.00;62.80;;;;;;4779167;30;20293;-85
2024/01/24 10:43:05;;;;;;;;;;;;;;;;;;;;;
2024/01/24 10:45:33;;;;;;;2.00;0.50;;;18.00;62.50;;;;;;4786252;29;20255;-85
2024/01/24 10:48:11;;;;;;;1.25;0.45;;;18.00;62.60;;;;;;4790831;29;20187;-84
2024/01/24 10:51:04;;;;;;;1.02;0.60;;;18.00;63.20;;;;;;4889591;29;20183;-81
2024/01/24 10:53:47;;;;;;;4.88;0.60;;;17.90;63.60;;;;;;4905038;29;20184;-82
2024/01/24 10:56:23;;;;;;;0.70;0.50;;;17.90;63.80;;;;;;4877365;29;20226;-84
2024/01/24 10:58:50;;;;;;;2.25;0.77;;;17.90;63.60;;;;;;4892439;29;20571;-83
2024/01/24 11:01:37;;;;;;;;;;;;;;;;;;;;;
2024/01/24 11:04:07;;;;;;;1.60;0.60;;;17.90;63.50;;;;;;4836952;29;20314;-84
2024/01/24 11:07:06;;;;;;;0.68;0.30;;;18.00;64.40;;;;;;4837690;29;20257;-84
2024/01/24 11:09:55;;;;;;;2.65;0.60;;;18.00;63.70;;;;;;4794001;30;20227;-85
2024/01/24 11:12:22;;;;;;;1.25;0.70;;;17.90;63.70;;;;;;4760736;30;20231;-82
2024/01/24 11:14:48;;;;;;;0.98;0.40;;;18.00;63.60;;;;;;4772712;30;20226;-82
2024/01/24 11:17:23;;;;;;;2.25;0.55;;;17.90;63.40;;;;;;4772036;30;20262;-84
2024/01/24 11:20:11;;;;;;;2.40;0.43;;;17.90;63.30;;;;;;4774608;30;20223;-86
2024/01/24 11:22:37;;;;;;;1.92;0.40;;;17.90;63.40;;;;;;4757828;30;20211;-85
2024/01/24 11:25:04;;;;;;;2.00;0.43;;;18.00;63.00;;;;;;4772894;30;20765;-82
2024/01/24 11:27:41;;;;;;;0.80;0.40;;;18.00;63.30;;;;;;4759316;30;20195;-83
2024/01/24 11:30:19;;;;;;;1.00;0.40;;;18.00;62.80;;;;;;4760229;30;20566;-83
2024/01/24 11:33:05;;;;;;;2.15;0.40;;;18.00;62.90;;;;;;4773201;30;20188;-84
2024/01/24 11:35:41;;;;;;;0.45;0.38;;;18.00;62.90;;;;;;4754883;30;20192;-79
2024/01/24 11:38:33;;;;;;;0.50;0.43;;;18.00;62.70;;;;;;4807917;29;20708;-82
2024/01/24 11:41:12;;;;;;;0.98;0.43;;;18.00;62.60;;;;;;4832071;29;20209;-81
2024/01/24 11:43:44;;;;;;;1.65;0.40;;;18.00;62.80;;;;;;4868173;29;20647;-81
2024/01/24 11:46:10;;;;;;;0.57;0.28;;;18.00;62.90;;;;;;4864019;29;20204;-81
2024/01/24 11:48:36;;;;;;;0.50;0.40;;;18.10;62.50;;;;;;4881565;29;20168;-81
2024/01/24 11:51:07;;;;;;;1.95;0.47;;;18.00;62.50;;;;;;4879763;29;20247;-82
2024/01/24 11:53:37;;;;;;;1.08;0.60;;;18.00;62.40;;;;;;4864972;29;20210;-83
2024/01/24 11:56:07;;;;;;;5.70;0.80;;;18.10;62.60;;;;;;4863690;29;20195;-81
2024/01/24 11:58:33;;;;;;;6.43;0.70;;;18.10;62.40;;;;;;4863557;29;20255;-79
2024/01/24 12:01:03;;;;;;;11.88;1.23;;;18.10;62.10;;;;;;4879332;29;20160;-81
2024/01/24 12:03:29;;;;;;;5.85;0.75;;;18.10;62.30;;;;;;4879613;29;20216;-82
2024/01/24 12:05:56;;;;;;;5.40;0.77;;;18.10;62.40;;;;;;4890908;29;20175;-84
2024/01/24 12:08:21;;;;;;;2.15;0.65;;;18.10;62.70;;;;;;4881624;29;20160;-82
2024/01/24 12:10:47;;;;;;;4.53;0.60;;;18.10;61.70;;;;;;4882345;29;20277;-80
2024/01/24 12:13:14;;;;;;;2.42;0.73;;;18.10;62.80;;;;;;4899633;29;20230;-83
2024/01/24 12:15:42;;;;;;;2.42;0.65;;;18.10;62.40;;;;;;4901546;29;20186;-81
2024/01/24 12:18:11;;;;;;;2.38;0.65;;;18.10;62.50;;;;;;4886291;29;20308;-84
2024/01/24 12:20:37;;;;;;;2.25;0.57;;;18.00;62.40;;;;;;4902514;29;20151;-82
2024/01/24 12:23:04;;;;;;;0.75;0.40;;;18.00;62.70;;;;;;4924206;29;20170;-83
2024/01/24 12:25:36;;;;;;;2.50;0.70;;;18.00;62.60;;;;;;4913937;29;20668;-78
2024/01/24 12:28:03;;;;;;;1.40;0.40;;;18.00;62.70;;;;;;4899332;29;20171;-81
2024/01/24 12:30:34;;;;;;;1.27;0.30;;;18.00;62.90;;;;;;4915479;29;20201;-83
2024/01/24 12:33:01;;;;;;;1.17;0.40;;;18.00;62.80;;;;;;4925480;29;20223;-80
2024/01/24 12:35:29;;;;;;;1.38;0.40;;;18.00;62.80;;;;;;4926850;29;20162;-81
2024/01/24 12:37:59;;;;;;;1.15;0.40;;;18.00;63.00;;;;;;4940417;29;20197;-82
2024/01/24 12:40:27;;;;;;;0.90;0.43;;;18.00;62.60;;;;;;4922066;29;20166;-81
2024/01/24 12:42:53;;;;;;;1.33;0.40;;;18.00;62.70;;;;;;4933851;29;20166;-84
2024/01/24 12:45:19;;;;;;;0.98;0.40;;;18.00;62.80;;;;;;4940546;29;20174;-85
2024/01/24 12:47:45;;;;;;;2.08;0.43;;;18.00;62.40;;;;;;4894488;29;20705;-83
2024/01/24 12:50:11;;;;;;;3.20;0.55;;;18.00;62.40;;;;;;4934539;29;20225;-81
2024/01/24 12:52:37;;;;;;;2.97;0.50;;;18.00;62.80;;;;;;4908172;29;20170;-83
2024/01/24 12:55:05;;;;;;;2.58;0.50;;;18.00;62.50;;;;;;4906004;29;20186;-83
2024/01/24 12:57:53;;;;;;;4.80;0.85;;;18.10;62.30;;;;;;4920152;29;20166;-81
2024/01/24 13:00:18;;;;;;;1.23;0.50;;;18.00;62.60;;;;;;4860770;29;20699;-80
2024/01/24 13:02:44;;;;;;;1.15;0.55;;;18.00;62.80;;;;;;4861576;29;20169;-85
2024/01/24 13:05:23;;;;;;;1.67;0.40;;;18.00;62.00;;;;;;4862680;29;20189;-83
2024/01/24 13:07:52;;;;;;;0.85;0.40;;;18.00;62.80;;;;;;4833648;29;20177;-83
2024/01/24 13:10:18;;;;;;;1.80;0.50;;;18.00;62.70;;;;;;4826733;29;20200;-84
2024/01/24 13:13:13;;;;;;;1.67;0.50;;;18.10;62.80;;;;;;4854398;29;20231;-78
2024/01/24 13:15:40;;;;;;;1.27;0.50;;;18.00;62.00;;;;;;4823491;29;20220;-84
2024/01/24 13:18:34;;;;;;;2.67;0.40;;;18.10;62.10;;;;;;4831283;29;20291;-84
2024/01/24 13:21:30;;;;;;;1.08;0.47;;;18.20;61.80;;;;;;4817131;29;20749;-82
2024/01/24 13:24:17;;;;;;;;;;;;;;;;;;;;;
2024/01/24 13:26:57;;;;;;;2.72;0.57;;;18.10;62.10;;;;;;4764396;30;20192;-85
2024/01/24 13:29:29;;;;;;;0.68;0.30;;;18.10;61.80;;;;;;4753395;30;20676;-84
2024/01/24 13:32:34;;;;;;;1.33;0.40;;;18.10;61.80;;;;;;4803207;29;20218;-80
2024/01/24 13:35:18;;;;;;;1.50;0.50;;;18.00;62.00;;;;;;4794245;29;20693;-81
2024/01/24 13:41:30;;;;;;;2.60;0.45;;;18.00;62.40;;;;;;4736893;30;20296;-81
2024/01/24 13:44:21;;;;;;;0.30;0.30;;;18.10;62.10;;;;;;4736352;30;20228;-83
2024/01/24 13:50:13;;;;;;;0.40;0.40;;;18.00;62.40;;;;;;4701203;30;20243;-82
2024/01/24 13:52:59;;;;;;;0.32;0.30;;;17.90;62.40;;;;;;4702750;30;20186;-82
2024/01/24 13:59:43;;;;;;;1.08;0.52;;;18.00;62.00;;;;;;4700530;30;20222;-80
2024/01/24 15:25:06;;;;;;;5.38;0.90;;;18.10;63.20;;;;;;6086061;23;1597805;-83
2024/01/24 15:27:58;;;;;;;9.95;1.10;;;18.10;62.80;;;;;;6003879;23;20648;-84
2024/01/24 15:30:58;;;;;;;4.63;1.00;;;18.10;62.90;;;;;;6040194;23;20253;-84
2024/01/24 15:33:24;;;;;;;5.72;0.63;;;18.10;62.80;;;;;;5997881;23;20168;-84
2024/01/24 15:35:50;;;;;;;4.70;0.90;;;18.20;62.50;;;;;;6000474;23;20515;-84
2024/01/24 15:38:44;;;;;;;5.13;0.80;;;18.20;62.90;;;;;;5977623;23;20227;-84
2024/01/24 15:41:36;;;;;;;3.95;0.70;;;18.10;62.90;;;;;;5995440;23;20217;-84
2024/01/24 15:44:02;;;;;;;7.78;0.77;;;18.10;63.30;;;;;;5973813;23;20182;-85
2024/01/24 15:46:31;;;;;;;6.80;1.08;;;18.10;63.30;;;;;;5970741;23;20159;-85
2024/01/24 15:49:01;;;;;;;10.23;1.15;;;18.00;63.40;;;;;;6017512;23;20619;-83
2024/01/24 16:21:09;;;;;;;7.07;1.02;;;18.20;62.90;;;;;;6127152;23;20211;-83
2024/01/24 16:23:39;;;;;;;8.20;0.90;;;18.20;63.20;;;;;;6168292;23;20139;-83
2024/01/24 16:26:05;;;;;;;6.32;0.98;;;18.20;63.00;;;;;;6096252;23;20209;-83
2024/01/24 16:28:36;;;;;;;10.70;1.10;;;18.20;62.80;;;;;;6165786;23;20142;-84
2024/01/24 16:31:03;;;;;;;7.60;1.00;;;18.30;63.60;;;;;;6091578;23;20222;-85
2024/01/24 16:33:39;;;;;;;7.38;1.00;;;18.20;63.50;;;;;;6044851;23;20158;-83
2024/01/24 16:36:18;;;;;;;6.78;0.70;;;18.20;63.60;;;;;;6026747;23;20148;-85
2024/01/24 16:38:53;;;;;;;5.35;0.98;;;18.20;63.80;;;;;;6001914;23;20190;-85
2024/01/24 16:41:26;;;;;;;9.52;0.98;;;18.30;63.50;;;;;;5934744;23;20165;-85
2024/01/24 16:43:56;;;;;;;5.00;0.98;;;18.20;63.60;;;;;;5955354;23;20150;-84
2024/01/24 16:46:23;;;;;;;7.18;0.85;;;18.30;63.60;;;;;;6022994;23;20185;-85
2024/01/24 16:48:55;;;;;;;13.23;1.25;;;18.20;63.90;;;;;;6023495;23;20176;-84
2024/01/24 16:51:21;;;;;;;8.95;1.20;;;18.30;64.30;;;;;;6021802;23;20190;-84
2024/01/24 16:54:17;;;;;;;4.88;1.30;;;18.30;64.30;;;;;;6023736;23;20244;-85
2024/01/24 16:56:46;;;;;;;4.75;1.05;;;18.40;64.20;;;;;;6022755;23;20168;-82
2024/01/24 16:59:34;;;;;;;2.05;0.93;;;18.40;63.60;;;;;;6003787;23;20217;-84
2024/01/24 17:02:03;;;;;;;8.30;1.00;;;18.40;63.70;;;;;;6024989;23;20160;-85
2024/01/24 17:04:31;;;;;;;8.98;1.00;;;18.40;63.70;;;;;;6036753;23;20639;-82
2024/01/24 17:07:06;;;;;;;4.75;1.00;;;18.50;62.60;;;;;;6027773;23;20201;-84
2024/01/24 17:09:43;;;;;;;3.75;1.10;;;18.50;62.70;;;;;;6025221;23;20158;-85
2024/01/24 17:12:16;;;;;;;6.30;0.90;;;18.50;63.60;;;;;;6026107;23;20315;-85
2024/01/24 17:14:45;;;;;;;5.47;1.02;;;18.50;62.90;;;;;;6001167;23;20151;-82
2024/01/24 17:24:20;;;;;;;8.07;1.05;;;18.60;61.90;;;;;;5835779;24;20214;-83
2024/01/24 17:26:55;;;;;;;4.63;0.88;;;18.60;62.50;;;;;;5830247;24;20159;-85
2024/01/24 17:29:44;;;;;;;7.35;1.20;;;18.70;62.30;;;;;;5855739;24;20162;-85
2024/01/24 17:33:28;;;;;;;;;;;;;;;;;;;;;
2024/01/24 17:36:20;;;;;;;1.90;0.70;;;18.50;62.60;;;;;;5835214;24;20159;-85
2024/01/24 17:42:29;;;;;;;6.78;1.15;;;18.70;62.20;;;;;;5824331;24;20179;-84
2024/01/24 17:45:16;;;;;;;3.00;0.77;;;18.70;62.80;;;;;;5823828;24;20258;-82
2024/01/24 17:48:08;;;;;;;5.05;1.10;;;18.60;63.00;;;;;;5825734;24;20167;-82
2024/01/24 17:50:51;;;;;;;5.10;1.00;;;18.70;63.10;;;;;;5846885;24;20211;-84
2024/01/24 17:54:12;;;;;;;;;;;;;;;;;;;;;
2024/01/24 17:56:54;;;;;;;4.38;1.10;;;18.70;62.80;;;;;;5875464;24;20204;-82
2024/01/24 17:59:20;;;;;;;4.70;0.70;;;18.70;63.80;;;;;;5976618;23;20149;-83
2024/01/24 18:02:31;;;;;;;7.80;1.05;;;18.70;64.00;;;;;;6073822;23;20160;-84
2024/01/24 18:05:55;;;;;;;;;;;;;;;;;;;;;
2024/01/24 20:06:22;;;;;;;2.20;0.80;;;18.50;65.40;;;;;;6137957;23;20277;-85
2024/01/24 20:08:57;;;;;;;2.42;1.10;;;18.60;66.50;;;;;;6108122;23;20155;-83
2024/01/24 20:11:28;;;;;;;2.17;0.77;;;18.40;64.70;;;;;;6134319;23;20173;-80
2024/01/24 20:24:17;;;;;;;2.47;0.70;;;18.50;63.70;;;;;;6126861;23;20619;-82
2024/01/24 20:26:49;;;;;;;4.03;0.80;;;18.50;64.30;;;;;;6134866;23;20147;-80
2024/01/24 20:29:17;;;;;;;3.70;0.80;;;18.50;63.80;;;;;;6107503;23;20242;-81
2024/01/24 20:31:45;;;;;;;1.63;0.60;;;18.60;64.40;;;;;;6132969;23;20186;-81
2024/01/24 20:34:27;;;;;;;3.42;0.70;;;18.60;64.10;;;;;;6133695;23;20139;-82
2024/01/24 20:37:08;;;;;;;1.55;0.65;;;18.50;64.10;;;;;;5994507;23;20161;-83
2024/01/24 20:39:44;;;;;;;1.08;0.45;;;18.50;64.50;;;;;;5935077;24;20179;-83
2024/01/24 20:42:17;;;;;;;4.43;0.75;;;18.50;63.50;;;;;;5934344;24;20156;-82
2024/01/24 20:44:45;;;;;;;2.08;0.82;;;18.50;63.50;;;;;;5956953;24;20163;-81
2024/01/24 20:47:20;;;;;;;1.80;0.70;;;18.50;65.30;;;;;;5910713;24;20199;-83
2024/01/24 20:50:07;;;;;;;3.00;0.77;;;18.40;65.90;;;;;;5910136;24;20552;-81
2024/01/24 20:53:12;;;;;;;4.20;0.90;;;18.40;66.00;;;;;;5933124;24;20168;-84
2024/01/24 20:55:46;;;;;;;4.65;0.93;;;18.30;66.40;;;;;;5916029;24;20160;-83
2024/01/24 20:58:18;;;;;;;4.05;0.85;;;18.30;66.80;;;;;;5849112;24;20157;-82
2024/01/24 21:00:53;;;;;;;1.98;0.82;;;18.30;67.20;;;;;;5855753;24;20195;-83
2024/01/24 21:03:19;;;;;;;2.10;0.95;;;18.30;66.60;;;;;;5866247;24;20220;-83
2024/01/24 21:05:54;;;;;;;4.25;0.80;;;18.30;67.40;;;;;;5955154;24;20144;-83
2024/01/24 21:08:36;;;;;;;1.35;0.82;;;18.30;67.60;;;;;;5891197;24;20261;-83
2024/01/24 23:21:00;;;;;;;3.17;0.80;;;17.90;68.30;;;;;;6147057;23;20445;-81
2024/01/24 23:23:44;;;;;;;2.05;0.50;;;17.90;68.30;;;;;;6186066;23;20202;-82
2024/01/24 23:27:00;;;;;;;2.15;0.65;;;17.90;68.30;;;;;;6115880;23;20691;-82
2024/01/24 23:29:51;;;;;;;2.00;0.65;;;18.00;68.30;;;;;;6104514;23;20156;-82
2024/01/24 23:57:14;;;;;;;0.90;0.40;;;17.90;68.30;;;;;;6152308;22;20259;-81
